Terminal Aerodrome Forecast
Issued by NWS

Home | Current Version | Previous Version | Text Only | Print | Product List | Glossary On
Versions: 1 2 3 4 5 6 7 8 9 10 11 12 13 14 15 16 17 18 19 20 21 22 23 24 25 26 27 28 29
163
FTUS41 KRNK 121726
TAFBCB
TAF
KBCB 121726Z 1218/1318 14006KT P6SM -SHSN SCT035 OVC060
     FM122000 29010G20KT 5SM -SHSN BKN020
      TEMPO 1221/1224 2SM -SHSN OVC012
     FM130400 30016G32KT 6SM -SHSN BKN020
     FM131300 31013G27KT P6SM -SHSN BKN035=

USA.gov is the U.S. government's official web portal to all federal, state and local government web resources and services.